aviador You're here:

CYPH Decoded Metar

INUKJUAK in QC, CANADA
Report Time2017-11-24 08:55:00
UTC Time2017-11-24 09:08:45
Flight Rules ifr IFR
WindCalm
Visibility1609 m
Phenomena:Light Snow
Clouds:Few 007 Hf
Overcast 023 Hf
Expected CloudBase > 800 ft AGL from Temp-Dew spread
Ceiling2,300 ft
Temp-15°C (ISA -30)
Dew Point-17°C (85% RH)
AAT-18.5°C
QNH997 hPa
Density Alt-3,205 ft
Elevation10 ft
Report Wrong Elevation
Raw Report
SPECI CYPH 240855Z AUTO 00000KT 1SM -SN FEW007 OVC023 M15/M17 A2945
RMK SLP977=

Extra information for CYPH:More info

Metar Taf Metar & Taf Last 4 Metars F.Rules Stats Wind Profile Meteogram Temp Stats Airport Information Weather charts Add Link Nearby VenuesMetar ALERT Operation Metar Decoded Social comments